Waizenkirchen, Austria
Current Conditions -  °F | °C
As of 6:50 AM on Sunday 26 Oct 2014 (Local Time) from LOWL Reporting Station
Haze Haze  
Wind Chill: 43°   Ceiling: 2100
Heat Index: 43°   Visibility: 2.3mi
Dew Point: 41°   Wind: 2mph
Humidity: 93%   Direction: 80°E
Pressure: 30.33"   Gusts: NA
Location:  48.33°N, 13.86°E
Report Text: LOWL 260450Z 08002KT 3800 BR SCT009 BKN021 06/05 Q1027 TEMPO 2500
Loading
Personal Weather Stations






























Interactive Weather Map
Tropical Storm Tracking
New forecast layout! Learn more

10-Day Weather Forecast

Advertisements
Track Severe Weather on mobile